YUL weather

Montreal / Pierre Elliott Trudeau International Airport
Montréal, Quebec, Canada

Public forecast

Using degrees Celsius for public forecast. Weather courtesy of forecast.io.

Current aviation weather report (METAR) for Montreal / Pierre Elliott Trudeau International Airport

Retrieved 2019/10/23 02:00 UTC (6 minutes ago):

CYUL 230200Z 14006KT 6SM -RA BR OVC067 12/10 A2982 RMK AC8 SLP100

Aviation forecast (TAF) for Montreal / Pierre Elliott Trudeau International Airport

Retrieved 2019-10-23 03:42 UTC (0 seconds ago):

TAF CYUL 230238Z 2303/2324 14012KT P6SM -RA FEW007 OVC040 TEMPO 2303/2309 5SM SHRA BR BKN005 OVC025 FM230900 16008KT P6SM -RA SCT006 OVC030 TEMPO 2309/2311 5SM -SHRA BR BKN005 OVC025 FM231100 23010KT P6SM BKN050 FM231300 24012KT P6SM FEW020 FM231500 24015G25KT P6SM BKN020 FM231700 24015G28KT P6SM BKN030 BECMG 2322/2324 24015KT RMK NXT FCST BY 230600Z